sensor_id;sensor_type;location;lat;lon;timestamp;pressure;altitude;pressure_sealevel;temperature;humidity
38616;BME280;24370;51.986;4.666;2022-08-03T00:01:35;101549.63;;;30.10;43.39
38616;BME280;24370;51.986;4.666;2022-08-03T00:04:00;101563.16;;;29.99;42.98
38616;BME280;24370;51.986;4.666;2022-08-03T00:06:26;101552.28;;;30.33;42.23
38616;BME280;24370;51.986;4.666;2022-08-03T00:08:51;101556.81;;;29.88;43.03
38616;BME280;24370;51.986;4.666;2022-08-03T00:11:17;101563.22;;;27.71;48.67
38616;BME280;24370;51.986;4.666;2022-08-03T00:13:42;101551.75;;;30.39;42.55
38616;BME280;24370;51.986;4.666;2022-08-03T00:16:08;101550.41;;;30.01;43.27
38616;BME280;24370;51.986;4.666;2022-08-03T00:18:35;101551.72;;;31.15;40.49
38616;BME280;24370;51.986;4.666;2022-08-03T00:21:00;101553.88;;;31.52;39.55
38616;BME280;24370;51.986;4.666;2022-08-03T00:23:26;101546.56;;;30.26;42.53
38616;BME280;24370;51.986;4.666;2022-08-03T00:25:51;101555.41;;;29.37;44.26
38616;BME280;24370;51.986;4.666;2022-08-03T00:28:17;101544.78;;;30.04;42.75
38616;BME280;24370;51.986;4.666;2022-08-03T00:30:42;101551.88;;;29.82;43.59
38616;BME280;24370;51.986;4.666;2022-08-03T00:33:08;101552.88;;;29.47;44.23
38616;BME280;24370;51.986;4.666;2022-08-03T00:35:35;101550.13;;;29.36;44.40
38616;BME280;24370;51.986;4.666;2022-08-03T00:38:00;101543.56;;;29.97;43.53
38616;BME280;24370;51.986;4.666;2022-08-03T00:40:26;101548.91;;;29.40;44.55
38616;BME280;24370;51.986;4.666;2022-08-03T00:42:53;101545.38;;;29.39;45.54
38616;BME280;24370;51.986;4.666;2022-08-03T00:45:22;101538.91;;;29.76;44.49
38616;BME280;24370;51.986;4.666;2022-08-03T00:47:47;101534.47;;;29.98;43.68
38616;BME280;24370;51.986;4.666;2022-08-03T00:50:14;101535.06;;;28.75;46.60
38616;BME280;24370;51.986;4.666;2022-08-03T00:52:40;101536.94;;;29.44;45.63
38616;BME280;24370;51.986;4.666;2022-08-03T00:55:05;101527.75;;;29.35;45.96
38616;BME280;24370;51.986;4.666;2022-08-03T00:57:31;101536.31;;;28.34;48.26
38616;BME280;24370;51.986;4.666;2022-08-03T00:59:58;101526.16;;;29.44;45.68
38616;BME280;24370;51.986;4.666;2022-08-03T01:02:27;101526.56;;;30.28;43.18
38616;BME280;24370;51.986;4.666;2022-08-03T01:04:53;101529.31;;;28.80;47.11
38616;BME280;24370;51.986;4.666;2022-08-03T01:10:31;101517.22;;;29.66;44.93
38616;BME280;24370;51.986;4.666;2022-08-03T01:15:42;101515.41;;;29.67;44.30
38616;BME280;24370;51.986;4.666;2022-08-03T01:18:24;101515.56;;;30.20;43.51
38616;BME280;24370;51.986;4.666;2022-08-03T01:20:55;101507.00;;;30.15;43.29
38616;BME280;24370;51.986;4.666;2022-08-03T01:26:59;101511.00;;;30.65;42.54
38616;BME280;24370;51.986;4.666;2022-08-03T01:32:22;101513.50;;;30.56;42.50
38616;BME280;24370;51.986;4.666;2022-08-03T01:34:55;101516.78;;;30.81;41.98
38616;BME280;24370;51.986;4.666;2022-08-03T01:37:36;101515.13;;;31.32;40.42
38616;BME280;24370;51.986;4.666;2022-08-03T01:40:04;101519.09;;;31.28;40.32
38616;BME280;24370;51.986;4.666;2022-08-03T01:42:31;101524.19;;;30.79;40.84
38616;BME280;24370;51.986;4.666;2022-08-03T01:44:58;101520.78;;;29.89;43.36
38616;BME280;24370;51.986;4.666;2022-08-03T01:47:26;101511.19;;;30.52;41.94
38616;BME280;24370;51.986;4.666;2022-08-03T01:49:54;101517.44;;;30.52;41.12
38616;BME280;24370;51.986;4.666;2022-08-03T01:52:20;101515.88;;;30.71;41.58
38616;BME280;24370;51.986;4.666;2022-08-03T01:54:48;101521.88;;;30.95;41.07
38616;BME280;24370;51.986;4.666;2022-08-03T01:57:15;101517.56;;;30.72;40.96
38616;BME280;24370;51.986;4.666;2022-08-03T01:59:43;101515.53;;;30.85;40.87
38616;BME280;24370;51.986;4.666;2022-08-03T02:02:11;101517.25;;;30.33;42.28
38616;BME280;24370;51.986;4.666;2022-08-03T02:04:40;101509.47;;;30.51;41.85
38616;BME280;24370;51.986;4.666;2022-08-03T02:07:07;101513.72;;;30.21;42.82
38616;BME280;24370;51.986;4.666;2022-08-03T02:09:34;101521.72;;;29.09;44.81
38616;BME280;24370;51.986;4.666;2022-08-03T02:12:01;101508.41;;;29.30;45.15
38616;BME280;24370;51.986;4.666;2022-08-03T02:14:28;101502.13;;;29.98;43.54
38616;BME280;24370;51.986;4.666;2022-08-03T02:16:54;101509.88;;;30.35;41.70
38616;BME280;24370;51.986;4.666;2022-08-03T02:19:21;101505.28;;;30.14;42.41
38616;BME280;24370;51.986;4.666;2022-08-03T02:21:50;101504.88;;;29.30;44.34
38616;BME280;24370;51.986;4.666;2022-08-03T02:24:17;101503.38;;;30.37;42.19
38616;BME280;24370;51.986;4.666;2022-08-03T02:26:43;101498.88;;;30.26;42.20
38616;BME280;24370;51.986;4.666;2022-08-03T02:29:15;101498.56;;;30.52;41.33
38616;BME280;24370;51.986;4.666;2022-08-03T02:31:44;101507.75;;;29.04;44.74
38616;BME280;24370;51.986;4.666;2022-08-03T02:34:13;101498.63;;;30.62;41.65
38616;BME280;24370;51.986;4.666;2022-08-03T02:36:41;101493.25;;;30.18;41.90
38616;BME280;24370;51.986;4.666;2022-08-03T02:39:10;101489.94;;;29.48;43.93
38616;BME280;24370;51.986;4.666;2022-08-03T02:41:42;101496.31;;;29.58;43.84
38616;BME280;24370;51.986;4.666;2022-08-03T02:44:11;101476.69;;;29.90;42.94
38616;BME280;24370;51.986;4.666;2022-08-03T02:46:38;101490.94;;;28.53;46.24
38616;BME280;24370;51.986;4.666;2022-08-03T02:49:06;101482.78;;;28.90;45.65
38616;BME280;24370;51.986;4.666;2022-08-03T02:51:35;101491.47;;;28.58;46.18
38616;BME280;24370;51.986;4.666;2022-08-03T02:54:04;101490.16;;;29.22;44.87
38616;BME280;24370;51.986;4.666;2022-08-03T02:56:31;101491.34;;;29.07;44.64
38616;BME280;24370;51.986;4.666;2022-08-03T02:58:58;101489.81;;;28.44;46.34
38616;BME280;24370;51.986;4.666;2022-08-03T03:01:27;101478.22;;;29.26;44.37
38616;BME280;24370;51.986;4.666;2022-08-03T03:03:55;101493.72;;;28.16;46.95
38616;BME280;24370;51.986;4.666;2022-08-03T03:06:23;101481.59;;;29.06;44.74
38616;BME280;24370;51.986;4.666;2022-08-03T03:08:50;101483.19;;;28.13;46.87
38616;BME280;24370;51.986;4.666;2022-08-03T03:11:17;101475.00;;;29.10;45.11
38616;BME280;24370;51.986;4.666;2022-08-03T03:13:43;101480.44;;;28.74;45.61
38616;BME280;24370;51.986;4.666;2022-08-03T03:16:11;101473.19;;;29.44;43.76
38616;BME280;24370;51.986;4.666;2022-08-03T03:18:38;101465.47;;;29.63;43.28
38616;BME280;24370;51.986;4.666;2022-08-03T03:21:06;101474.25;;;29.19;44.55
38616;BME280;24370;51.986;4.666;2022-08-03T03:23:34;101472.09;;;28.42;45.71
38616;BME280;24370;51.986;4.666;2022-08-03T03:26:00;101481.28;;;28.75;45.39
38616;BME280;24370;51.986;4.666;2022-08-03T03:28:26;101479.41;;;29.45;43.41
38616;BME280;24370;51.986;4.666;2022-08-03T03:30:52;101478.13;;;28.81;45.17
38616;BME280;24370;51.986;4.666;2022-08-03T03:33:17;101484.16;;;28.60;45.55
38616;BME280;24370;51.986;4.666;2022-08-03T03:35:43;101485.50;;;27.93;47.04
38616;BME280;24370;51.986;4.666;2022-08-03T03:38:11;101483.66;;;29.02;44.23
38616;BME280;24370;51.986;4.666;2022-08-03T03:40:39;101470.47;;;29.33;43.93
38616;BME280;24370;51.986;4.666;2022-08-03T03:43:10;101473.56;;;29.51;43.09
38616;BME280;24370;51.986;4.666;2022-08-03T03:45:36;101472.16;;;29.23;43.95
38616;BME280;24370;51.986;4.666;2022-08-03T03:48:05;101482.50;;;28.82;44.94
38616;BME280;24370;51.986;4.666;2022-08-03T03:50:32;101475.72;;;29.23;44.02
38616;BME280;24370;51.986;4.666;2022-08-03T03:52:57;101484.56;;;29.25;43.80
38616;BME280;24370;51.986;4.666;2022-08-03T03:55:23;101480.09;;;29.81;42.82
38616;BME280;24370;51.986;4.666;2022-08-03T03:57:49;101484.06;;;29.54;43.37
38616;BME280;24370;51.986;4.666;2022-08-03T04:00:16;101488.00;;;29.50;43.14
38616;BME280;24370;51.986;4.666;2022-08-03T04:02:42;101489.28;;;29.78;42.88
38616;BME280;24370;51.986;4.666;2022-08-03T04:05:08;101492.38;;;29.40;43.49
38616;BME280;24370;51.986;4.666;2022-08-03T04:08:11;101494.09;;;29.64;42.82
38616;BME280;24370;51.986;4.666;2022-08-03T04:11:22;101486.50;;;29.69;42.67
38616;BME280;24370;51.986;4.666;2022-08-03T04:13:52;101490.03;;;29.58;43.44
38616;BME280;24370;51.986;4.666;2022-08-03T04:16:21;101495.06;;;29.74;42.86
38616;BME280;24370;51.986;4.666;2022-08-03T04:19:01;101500.69;;;29.71;42.69
38616;BME280;24370;51.986;4.666;2022-08-03T04:21:29;101492.66;;;29.59;42.90
38616;BME280;24370;51.986;4.666;2022-08-03T04:23:58;101496.41;;;29.45;43.51
38616;BME280;24370;51.986;4.666;2022-08-03T04:26:28;101493.59;;;29.36;43.76
38616;BME280;24370;51.986;4.666;2022-08-03T04:28:56;101494.63;;;28.52;45.81
38616;BME280;24370;51.986;4.666;2022-08-03T04:31:23;101482.97;;;29.45;43.61
38616;BME280;24370;51.986;4.666;2022-08-03T04:33:51;101488.91;;;28.33;46.42
38616;BME280;24370;51.986;4.666;2022-08-03T04:36:20;101493.56;;;29.02;44.92
38616;BME280;24370;51.986;4.666;2022-08-03T04:39:02;101496.59;;;28.61;45.66
38616;BME280;24370;51.986;4.666;2022-08-03T04:41:29;101491.66;;;29.72;42.75
38616;BME280;24370;51.986;4.666;2022-08-03T04:43:57;101496.06;;;29.50;43.10
38616;BME280;24370;51.986;4.666;2022-08-03T04:46:26;101503.81;;;28.85;44.84
38616;BME280;24370;51.986;4.666;2022-08-03T04:48:52;101497.88;;;29.50;43.24
38616;BME280;24370;51.986;4.666;2022-08-03T04:51:18;101502.63;;;29.23;44.35
38616;BME280;24370;51.986;4.666;2022-08-03T04:53:44;101497.06;;;29.26;44.68
38616;BME280;24370;51.986;4.666;2022-08-03T04:56:09;101496.06;;;29.61;43.24
38616;BME280;24370;51.986;4.666;2022-08-03T04:58:35;101508.75;;;29.14;44.63
38616;BME280;24370;51.986;4.666;2022-08-03T05:01:00;101513.84;;;28.94;44.93
38616;BME280;24370;51.986;4.666;2022-08-03T05:03:26;101511.44;;;28.43;46.33
38616;BME280;24370;51.986;4.666;2022-08-03T05:05:52;101516.53;;;28.35;47.13
38616;BME280;24370;51.986;4.666;2022-08-03T05:08:18;101509.84;;;29.23;44.92
38616;BME280;24370;51.986;4.666;2022-08-03T05:10:43;101519.97;;;28.37;46.50
38616;BME280;24370;51.986;4.666;2022-08-03T05:13:09;101511.50;;;28.54;46.68
38616;BME280;24370;51.986;4.666;2022-08-03T05:15:37;101517.72;;;28.79;45.91
38616;BME280;24370;51.986;4.666;2022-08-03T05:18:03;101528.06;;;27.87;48.39
38616;BME280;24370;51.986;4.666;2022-08-03T05:20:28;101519.47;;;28.32;47.46
38616;BME280;24370;51.986;4.666;2022-08-03T05:22:53;101526.63;;;27.57;51.11
38616;BME280;24370;51.986;4.666;2022-08-03T05:25:19;101529.38;;;27.81;49.54
38616;BME280;24370;51.986;4.666;2022-08-03T05:27:44;101534.44;;;28.23;48.83
38616;BME280;24370;51.986;4.666;2022-08-03T05:30:10;101535.53;;;28.69;47.81
38616;BME280;24370;51.986;4.666;2022-08-03T05:32:35;101531.63;;;28.24;49.07
38616;BME280;24370;51.986;4.666;2022-08-03T05:35:01;101534.13;;;27.65;50.45
38616;BME280;24370;51.986;4.666;2022-08-03T05:37:26;101533.06;;;27.54;50.61
38616;BME280;24370;51.986;4.666;2022-08-03T05:39:51;101535.06;;;28.26;49.07
38616;BME280;24370;51.986;4.666;2022-08-03T05:42:17;101530.25;;;28.19;48.57
38616;BME280;24370;51.986;4.666;2022-08-03T05:44:42;101535.06;;;28.75;47.83
38616;BME280;24370;51.986;4.666;2022-08-03T05:47:07;101528.13;;;29.42;46.50
38616;BME280;24370;51.986;4.666;2022-08-03T05:49:33;101524.75;;;28.20;48.79
38616;BME280;24370;51.986;4.666;2022-08-03T05:51:59;101535.94;;;27.77;50.11
38616;BME280;24370;51.986;4.666;2022-08-03T05:54:24;101527.00;;;27.76;50.06
38616;BME280;24370;51.986;4.666;2022-08-03T05:56:49;101533.81;;;28.19;49.78
38616;BME280;24370;51.986;4.666;2022-08-03T05:59:15;101529.28;;;29.04;48.06
38616;BME280;24370;51.986;4.666;2022-08-03T06:01:40;101523.94;;;29.83;44.98
38616;BME280;24370;51.986;4.666;2022-08-03T06:04:06;101531.78;;;29.41;46.93
38616;BME280;24370;51.986;4.666;2022-08-03T06:06:31;101532.66;;;28.94;47.31
38616;BME280;24370;51.986;4.666;2022-08-03T06:08:56;101530.81;;;29.99;45.84
38616;BME280;24370;51.986;4.666;2022-08-03T06:11:22;101530.19;;;30.06;44.87
38616;BME280;24370;51.986;4.666;2022-08-03T06:13:47;101537.06;;;29.54;44.64
38616;BME280;24370;51.986;4.666;2022-08-03T06:16:12;101529.19;;;31.05;42.76
38616;BME280;24370;51.986;4.666;2022-08-03T06:18:38;101531.41;;;30.78;43.15
38616;BME280;24370;51.986;4.666;2022-08-03T06:21:04;101529.81;;;30.11;43.79
38616;BME280;24370;51.986;4.666;2022-08-03T06:23:30;101539.59;;;29.21;45.62
38616;BME280;24370;51.986;4.666;2022-08-03T06:25:55;101531.41;;;29.34;45.30
38616;BME280;24370;51.986;4.666;2022-08-03T06:28:20;101532.31;;;29.35;46.08
38616;BME280;24370;51.986;4.666;2022-08-03T06:30:46;101531.13;;;29.15;46.35
38616;BME280;24370;51.986;4.666;2022-08-03T06:33:11;101534.31;;;29.20;46.34
38616;BME280;24370;51.986;4.666;2022-08-03T06:35:37;101538.09;;;28.46;47.89
38616;BME280;24370;51.986;4.666;2022-08-03T06:38:02;101535.22;;;30.00;44.94
38616;BME280;24370;51.986;4.666;2022-08-03T06:40:28;101536.94;;;29.67;44.61
38616;BME280;24370;51.986;4.666;2022-08-03T06:42:56;101544.03;;;29.45;45.43
38616;BME280;24370;51.986;4.666;2022-08-03T06:45:22;101543.66;;;28.32;47.84
38616;BME280;24370;51.986;4.666;2022-08-03T06:47:59;101536.31;;;29.97;44.44
38616;BME280;24370;51.986;4.666;2022-08-03T06:50:24;101546.22;;;30.08;44.96
38616;BME280;24370;51.986;4.666;2022-08-03T06:52:50;101549.56;;;29.77;44.95
38616;BME280;24370;51.986;4.666;2022-08-03T06:55:15;101548.97;;;30.29;43.36
38616;BME280;24370;51.986;4.666;2022-08-03T06:57:41;101553.03;;;30.46;42.67
38616;BME280;24370;51.986;4.666;2022-08-03T07:00:06;101547.63;;;31.00;41.63
38616;BME280;24370;51.986;4.666;2022-08-03T07:02:33;101546.50;;;32.36;38.88
38616;BME280;24370;51.986;4.666;2022-08-03T07:04:59;101546.19;;;32.88;38.61
38616;BME280;24370;51.986;4.666;2022-08-03T07:07:24;101551.56;;;33.17;37.15
38616;BME280;24370;51.986;4.666;2022-08-03T07:09:49;101548.19;;;32.37;39.05
38616;BME280;24370;51.986;4.666;2022-08-03T07:12:15;101552.38;;;33.47;36.77
38616;BME280;24370;51.986;4.666;2022-08-03T07:14:40;101547.50;;;35.41;33.46
38616;BME280;24370;51.986;4.666;2022-08-03T07:17:06;101554.59;;;35.42;32.81
38616;BME280;24370;51.986;4.666;2022-08-03T07:19:31;101566.88;;;37.30;30.18
38616;BME280;24370;51.986;4.666;2022-08-03T07:21:56;101563.75;;;34.52;34.49
38616;BME280;24370;51.986;4.666;2022-08-03T07:24:23;101578.50;;;37.64;29.56
38616;BME280;24370;51.986;4.666;2022-08-03T07:26:48;101567.91;;;36.63;30.70
38616;BME280;24370;51.986;4.666;2022-08-03T07:29:14;101575.09;;;32.97;36.28
38616;BME280;24370;51.986;4.666;2022-08-03T07:31:39;101577.78;;;34.02;35.00
38616;BME280;24370;51.986;4.666;2022-08-03T07:34:04;101582.59;;;34.90;33.46
38616;BME280;24370;51.986;4.666;2022-08-03T07:36:30;101584.59;;;36.68;29.80
38616;BME280;24370;51.986;4.666;2022-08-03T07:38:56;101582.47;;;36.21;31.81
38616;BME280;24370;51.986;4.666;2022-08-03T07:41:22;101584.31;;;35.70;31.43
38616;BME280;24370;51.986;4.666;2022-08-03T07:43:48;101583.00;;;37.96;29.79
38616;BME280;24370;51.986;4.666;2022-08-03T07:46:13;101581.03;;;39.36;28.51
38616;BME280;24370;51.986;4.666;2022-08-03T07:48:39;101589.34;;;37.08;29.00
38616;BME280;24370;51.986;4.666;2022-08-03T07:51:05;101586.84;;;37.79;28.19
38616;BME280;24370;51.986;4.666;2022-08-03T07:53:31;101595.06;;;38.02;28.46
38616;BME280;24370;51.986;4.666;2022-08-03T07:55:56;101585.97;;;36.56;30.55
38616;BME280;24370;51.986;4.666;2022-08-03T07:58:22;101593.75;;;37.25;29.05
38616;BME280;24370;51.986;4.666;2022-08-03T08:00:48;101592.81;;;38.37;28.24
38616;BME280;24370;51.986;4.666;2022-08-03T08:03:15;101591.75;;;36.86;30.18
38616;BME280;24370;51.986;4.666;2022-08-03T08:05:40;101591.84;;;38.99;26.85
38616;BME280;24370;51.986;4.666;2022-08-03T08:08:06;101591.03;;;36.43;30.31
38616;BME280;24370;51.986;4.666;2022-08-03T08:10:32;101600.66;;;38.09;27.88
38616;BME280;24370;51.986;4.666;2022-08-03T08:12:58;101600.97;;;37.01;29.44
38616;BME280;24370;51.986;4.666;2022-08-03T08:15:23;101592.84;;;37.97;28.07
38616;BME280;24370;51.986;4.666;2022-08-03T08:20:17;101595.44;;;38.22;28.29
38616;BME280;24370;51.986;4.666;2022-08-03T08:22:43;101587.91;;;39.17;26.14
38616;BME280;24370;51.986;4.666;2022-08-03T08:25:09;101600.41;;;40.16;24.99
38616;BME280;24370;51.986;4.666;2022-08-03T08:27:43;101601.09;;;42.30;23.55
38616;BME280;24370;51.986;4.666;2022-08-03T08:30:09;101595.19;;;39.40;26.66
38616;BME280;24370;51.986;4.666;2022-08-03T08:32:34;101592.94;;;40.46;24.94
38616;BME280;24370;51.986;4.666;2022-08-03T08:35:02;101593.38;;;38.32;26.88
38616;BME280;24370;51.986;4.666;2022-08-03T08:37:27;101594.16;;;38.64;26.31
38616;BME280;24370;51.986;4.666;2022-08-03T08:39:55;101593.94;;;36.41;29.74
38616;BME280;24370;51.986;4.666;2022-08-03T08:42:20;101591.66;;;38.31;27.57
38616;BME280;24370;51.986;4.666;2022-08-03T08:44:46;101591.81;;;38.61;27.63
38616;BME280;24370;51.986;4.666;2022-08-03T08:47:12;101594.06;;;40.95;25.79
38616;BME280;24370;51.986;4.666;2022-08-03T08:49:39;101590.91;;;42.17;22.76
38616;BME280;24370;51.986;4.666;2022-08-03T08:52:07;101593.44;;;43.46;22.06
38616;BME280;24370;51.986;4.666;2022-08-03T08:54:33;101600.69;;;42.40;22.30
38616;BME280;24370;51.986;4.666;2022-08-03T08:57:02;101597.78;;;41.44;23.86
38616;BME280;24370;51.986;4.666;2022-08-03T08:59:32;101592.69;;;41.41;23.50
38616;BME280;24370;51.986;4.666;2022-08-03T09:01:59;101601.09;;;42.30;22.64
38616;BME280;24370;51.986;4.666;2022-08-03T09:04:26;101587.06;;;40.28;25.07
38616;BME280;24370;51.986;4.666;2022-08-03T09:06:52;101593.56;;;40.92;24.70
38616;BME280;24370;51.986;4.666;2022-08-03T09:09:17;101595.13;;;41.29;23.50
38616;BME280;24370;51.986;4.666;2022-08-03T09:11:43;101599.28;;;40.68;25.03
38616;BME280;24370;51.986;4.666;2022-08-03T09:14:09;101596.63;;;38.97;26.46
38616;BME280;24370;51.986;4.666;2022-08-03T09:16:34;101596.44;;;42.30;23.53
38616;BME280;24370;51.986;4.666;2022-08-03T09:19:11;101594.56;;;41.12;24.68
38616;BME280;24370;51.986;4.666;2022-08-03T09:21:37;101603.16;;;40.01;25.56
38616;BME280;24370;51.986;4.666;2022-08-03T09:24:05;101605.94;;;40.59;24.43
38616;BME280;24370;51.986;4.666;2022-08-03T09:26:33;101608.97;;;39.76;25.71
38616;BME280;24370;51.986;4.666;2022-08-03T09:29:09;101611.03;;;39.44;26.07
38616;BME280;24370;51.986;4.666;2022-08-03T09:31:39;101609.66;;;39.63;25.80
38616;BME280;24370;51.986;4.666;2022-08-03T09:34:10;101607.19;;;40.20;25.47
38616;BME280;24370;51.986;4.666;2022-08-03T09:39:07;101607.72;;;40.09;25.22
38616;BME280;24370;51.986;4.666;2022-08-03T09:41:36;101603.16;;;40.16;25.68
38616;BME280;24370;51.986;4.666;2022-08-03T09:44:02;101614.06;;;41.94;22.88
38616;BME280;24370;51.986;4.666;2022-08-03T09:46:27;101604.97;;;41.17;24.44
38616;BME280;24370;51.986;4.666;2022-08-03T09:49:08;101590.69;;;40.50;24.59
38616;BME280;24370;51.986;4.666;2022-08-03T09:51:34;101600.47;;;39.26;26.11
38616;BME280;24370;51.986;4.666;2022-08-03T09:54:00;101597.06;;;40.35;24.18
38616;BME280;24370;51.986;4.666;2022-08-03T09:56:45;101599.09;;;40.70;25.22
38616;BME280;24370;51.986;4.666;2022-08-03T09:59:21;101598.53;;;40.01;25.86
38616;BME280;24370;51.986;4.666;2022-08-03T10:01:48;101607.06;;;37.12;28.80
38616;BME280;24370;51.986;4.666;2022-08-03T10:04:14;101601.00;;;38.60;26.29
38616;BME280;24370;51.986;4.666;2022-08-03T10:06:45;101600.28;;;39.43;25.79
38616;BME280;24370;51.986;4.666;2022-08-03T10:09:25;101596.63;;;38.51;26.67
38616;BME280;24370;51.986;4.666;2022-08-03T10:11:50;101591.00;;;39.14;26.44
38616;BME280;24370;51.986;4.666;2022-08-03T10:14:16;101601.09;;;40.40;24.83
38616;BME280;24370;51.986;4.666;2022-08-03T10:16:45;101592.81;;;38.06;26.58
38616;BME280;24370;51.986;4.666;2022-08-03T10:19:11;101593.47;;;38.71;27.01
38616;BME280;24370;51.986;4.666;2022-08-03T10:21:40;101588.41;;;39.50;25.86
38616;BME280;24370;51.986;4.666;2022-08-03T10:24:07;101592.06;;;37.24;29.05
38616;BME280;24370;51.986;4.666;2022-08-03T10:26:37;101592.09;;;39.05;26.62
38616;BME280;24370;51.986;4.666;2022-08-03T10:29:05;101593.63;;;37.83;27.25
38616;BME280;24370;51.986;4.666;2022-08-03T10:31:38;101589.28;;;37.49;28.41
38616;BME280;24370;51.986;4.666;2022-08-03T10:34:23;101594.09;;;37.47;28.63
38616;BME280;24370;51.986;4.666;2022-08-03T10:36:52;101579.59;;;38.95;26.08
38616;BME280;24370;51.986;4.666;2022-08-03T10:39:22;101578.41;;;38.75;26.15
38616;BME280;24370;51.986;4.666;2022-08-03T10:41:48;101578.72;;;40.36;24.88
38616;BME280;24370;51.986;4.666;2022-08-03T10:44:19;101582.28;;;39.78;25.76
38616;BME280;24370;51.986;4.666;2022-08-03T10:46:46;101590.16;;;37.41;28.42
38616;BME280;24370;51.986;4.666;2022-08-03T10:49:14;101582.50;;;39.62;26.11
38616;BME280;24370;51.986;4.666;2022-08-03T10:51:41;101586.16;;;37.77;27.99
38616;BME280;24370;51.986;4.666;2022-08-03T10:57:01;101586.97;;;37.21;28.00
38616;BME280;24370;51.986;4.666;2022-08-03T11:02:11;101568.63;;;38.80;27.10
38616;BME280;24370;51.986;4.666;2022-08-03T11:04:37;101562.16;;;38.04;27.62
38616;BME280;24370;51.986;4.666;2022-08-03T11:09:55;101573.91;;;39.20;26.67
38616;BME280;24370;51.986;4.666;2022-08-03T11:12:21;101572.72;;;40.26;24.24
38616;BME280;24370;51.986;4.666;2022-08-03T11:14:48;101572.00;;;38.59;25.70
38616;BME280;24370;51.986;4.666;2022-08-03T11:17:13;101561.72;;;40.19;24.46
38616;BME280;24370;51.986;4.666;2022-08-03T11:19:50;101570.00;;;39.89;23.67
38616;BME280;24370;51.986;4.666;2022-08-03T11:22:16;101571.50;;;37.78;26.33
38616;BME280;24370;51.986;4.666;2022-08-03T11:35:14;101568.56;;;39.93;24.32
38616;BME280;24370;51.986;4.666;2022-08-03T11:42:58;101567.16;;;38.93;24.95
38616;BME280;24370;51.986;4.666;2022-08-03T11:45:24;101559.28;;;39.43;24.90
38616;BME280;24370;51.986;4.666;2022-08-03T11:47:53;101568.00;;;39.08;24.84
38616;BME280;24370;51.986;4.666;2022-08-03T11:50:19;101559.88;;;38.85;26.09
38616;BME280;24370;51.986;4.666;2022-08-03T11:52:45;101558.78;;;38.25;26.88
38616;BME280;24370;51.986;4.666;2022-08-03T11:55:12;101564.25;;;39.84;24.46
38616;BME280;24370;51.986;4.666;2022-08-03T11:57:38;101564.84;;;40.16;24.24
38616;BME280;24370;51.986;4.666;2022-08-03T12:02:57;101564.53;;;39.59;24.04
38616;BME280;24370;51.986;4.666;2022-08-03T12:05:40;101567.88;;;40.06;23.96
38616;BME280;24370;51.986;4.666;2022-08-03T12:08:07;101563.63;;;39.67;24.06
38616;BME280;24370;51.986;4.666;2022-08-03T12:10:33;101560.75;;;38.62;25.08
38616;BME280;24370;51.986;4.666;2022-08-03T12:13:00;101559.28;;;38.51;25.75
38616;BME280;24370;51.986;4.666;2022-08-03T12:15:28;101552.72;;;40.47;24.01
38616;BME280;24370;51.986;4.666;2022-08-03T12:17:55;101557.22;;;40.11;24.34
38616;BME280;24370;51.986;4.666;2022-08-03T12:20:25;101553.13;;;40.22;24.21
38616;BME280;24370;51.986;4.666;2022-08-03T12:22:51;101555.13;;;39.62;24.37
38616;BME280;24370;51.986;4.666;2022-08-03T12:25:22;101559.25;;;37.65;27.09
38616;BME280;24370;51.986;4.666;2022-08-03T12:27:49;101572.84;;;36.76;27.94
38616;BME280;24370;51.986;4.666;2022-08-03T12:30:14;101554.41;;;38.85;25.85
38616;BME280;24370;51.986;4.666;2022-08-03T12:32:42;101564.44;;;39.08;25.62
38616;BME280;24370;51.986;4.666;2022-08-03T12:35:08;101555.25;;;38.71;26.07
38616;BME280;24370;51.986;4.666;2022-08-03T12:37:33;101556.31;;;38.99;25.42
38616;BME280;24370;51.986;4.666;2022-08-03T12:39:59;101563.78;;;37.25;28.11
38616;BME280;24370;51.986;4.666;2022-08-03T12:42:30;101561.78;;;38.99;25.87
38616;BME280;24370;51.986;4.666;2022-08-03T12:44:55;101553.91;;;39.64;24.81
38616;BME280;24370;51.986;4.666;2022-08-03T12:47:20;101548.81;;;38.78;25.87
38616;BME280;24370;51.986;4.666;2022-08-03T12:49:48;101558.91;;;38.55;25.74
38616;BME280;24370;51.986;4.666;2022-08-03T12:52:16;101552.88;;;39.21;25.66
38616;BME280;24370;51.986;4.666;2022-08-03T12:54:42;101550.16;;;38.13;26.48
38616;BME280;24370;51.986;4.666;2022-08-03T12:57:08;101563.88;;;38.51;26.25
38616;BME280;24370;51.986;4.666;2022-08-03T12:59:38;101553.91;;;39.34;24.66
38616;BME280;24370;51.986;4.666;2022-08-03T13:02:24;101548.16;;;40.54;23.80
38616;BME280;24370;51.986;4.666;2022-08-03T13:04:51;101547.00;;;38.01;26.16
38616;BME280;24370;51.986;4.666;2022-08-03T13:07:17;101553.31;;;39.54;24.80
38616;BME280;24370;51.986;4.666;2022-08-03T13:09:52;101541.38;;;40.07;24.95
38616;BME280;24370;51.986;4.666;2022-08-03T13:12:23;101543.53;;;39.96;24.94
38616;BME280;24370;51.986;4.666;2022-08-03T13:14:55;101546.44;;;40.96;23.46
38616;BME280;24370;51.986;4.666;2022-08-03T13:17:21;101548.28;;;40.24;23.89
38616;BME280;24370;51.986;4.666;2022-08-03T13:19:47;101544.59;;;38.76;25.42
38616;BME280;24370;51.986;4.666;2022-08-03T13:24:44;101543.44;;;39.38;24.79
38616;BME280;24370;51.986;4.666;2022-08-03T13:27:10;101545.59;;;38.37;25.82
38616;BME280;24370;51.986;4.666;2022-08-03T13:29:35;101546.66;;;38.27;25.99
38616;BME280;24370;51.986;4.666;2022-08-03T13:32:01;101555.50;;;37.66;26.46
38616;BME280;24370;51.986;4.666;2022-08-03T13:34:27;101547.31;;;36.77;27.48
38616;BME280;24370;51.986;4.666;2022-08-03T13:36:52;101539.69;;;37.93;26.24
38616;BME280;24370;51.986;4.666;2022-08-03T13:39:18;101537.50;;;37.49;27.20